createdAt,value
2018-09-02T00:01:28.468Z,1.40
2018-09-02T00:05:32.182Z,1.97
2018-09-02T00:09:35.889Z,1.40
2018-09-02T00:13:39.556Z,1.40
2018-09-02T00:17:43.240Z,1.70
2018-09-02T00:21:46.908Z,1.40
2018-09-02T00:25:50.607Z,1.20
2018-09-02T00:29:54.331Z,1.60
2018-09-02T00:33:58.048Z,1.47
2018-09-02T00:38:01.798Z,1.53
2018-09-02T00:42:05.523Z,1.30
2018-09-02T00:46:09.242Z,1.47
2018-09-02T00:50:13.025Z,1.33
2018-09-02T00:54:16.687Z,1.83
2018-09-02T00:58:20.376Z,1.60
2018-09-02T01:02:24.100Z,2.27
2018-09-02T01:06:27.876Z,1.90
2018-09-02T01:10:31.570Z,1.50
2018-09-02T01:14:35.340Z,1.63
2018-09-02T01:18:39.037Z,1.73
2018-09-02T01:22:42.693Z,2.00
2018-09-02T01:26:46.376Z,1.77
2018-09-02T01:30:50.136Z,2.07
2018-09-02T01:34:53.811Z,1.93
2018-09-02T01:38:57.550Z,2.23
2018-09-02T01:43:01.204Z,1.97
2018-09-02T01:47:05.010Z,1.50
2018-09-02T01:51:11.616Z,1.93
2018-09-02T01:55:15.336Z,1.73
2018-09-02T01:59:19.020Z,2.20
2018-09-02T02:03:22.636Z,1.80
2018-09-02T02:07:26.293Z,2.03
2018-09-02T02:11:29.963Z,2.13
2018-09-02T02:15:33.605Z,1.87
2018-09-02T02:19:37.408Z,1.83
2018-09-02T02:23:41.153Z,2.30
2018-09-02T02:27:44.812Z,2.10
2018-09-02T02:31:48.458Z,2.23
2018-09-02T02:35:52.178Z,2.23
2018-09-02T02:39:55.835Z,2.07
2018-09-02T02:43:59.499Z,2.20
2018-09-02T02:48:03.166Z,2.50
2018-09-02T02:52:06.854Z,2.00
2018-09-02T02:56:10.527Z,2.37
2018-09-02T03:00:14.348Z,1.77
2018-09-02T03:04:18.004Z,2.33
2018-09-02T03:08:21.643Z,2.40
2018-09-02T03:12:25.308Z,2.10
2018-09-02T03:16:28.972Z,2.10
2018-09-02T03:20:32.631Z,2.53
2018-09-02T03:24:36.279Z,2.83
2018-09-02T03:28:39.951Z,2.47
2018-09-02T03:32:43.659Z,2.40
2018-09-02T03:36:47.381Z,2.43
2018-09-02T03:40:51.068Z,2.57
2018-09-02T03:44:54.741Z,2.87
2018-09-02T03:48:58.563Z,2.43
2018-09-02T03:53:02.346Z,2.83
2018-09-02T03:57:06.094Z,2.87
2018-09-02T04:01:09.773Z,3.07
2018-09-02T04:05:13.455Z,3.47
2018-09-02T04:09:17.121Z,3.23
2018-09-02T04:13:20.797Z,2.97
2018-09-02T04:17:24.481Z,3.40
2018-09-02T04:21:28.170Z,3.57
2018-09-02T04:25:32.603Z,3.20
2018-09-02T04:29:36.357Z,3.50
2018-09-02T04:33:40.089Z,3.10
2018-09-02T04:37:43.791Z,3.03
2018-09-02T04:41:47.512Z,3.37
2018-09-02T04:45:51.180Z,3.70
2018-09-02T04:49:54.921Z,3.47
2018-09-02T04:53:58.593Z,3.80
2018-09-02T04:58:02.273Z,3.67
2018-09-02T05:02:05.936Z,4.00
2018-09-02T05:06:09.608Z,3.30
2018-09-02T05:10:13.276Z,3.83
2018-09-02T05:14:17.092Z,3.37
2018-09-02T05:18:20.783Z,3.97
2018-09-02T05:22:24.541Z,3.63
2018-09-02T05:26:28.247Z,4.20
2018-09-02T05:30:31.949Z,3.53
2018-09-02T05:34:35.660Z,4.13
2018-09-02T05:38:39.357Z,4.63
2018-09-02T05:42:43.103Z,4.37
2018-09-02T05:46:46.762Z,4.70
2018-09-02T05:50:50.417Z,4.97
2018-09-02T05:54:54.190Z,7.30
2018-09-02T05:58:57.839Z,5.00
2018-09-02T06:03:01.603Z,5.63
2018-09-02T06:07:05.362Z,5.20
2018-09-02T06:11:09.001Z,5.17
2018-09-02T06:15:12.653Z,5.10
2018-09-02T06:19:16.317Z,5.30
2018-09-02T06:23:19.980Z,4.67
2018-09-02T06:27:23.936Z,4.60
2018-09-02T06:31:27.616Z,4.43
2018-09-02T06:35:31.310Z,4.70
2018-09-02T06:39:34.968Z,3.53
2018-09-02T06:43:38.629Z,4.00
2018-09-02T06:47:42.298Z,4.30
2018-09-02T06:51:45.954Z,4.10
2018-09-02T06:55:49.582Z,4.60
2018-09-02T06:59:53.250Z,4.20
2018-09-02T07:03:56.918Z,3.87
2018-09-02T07:08:00.559Z,4.43
2018-09-02T07:12:04.232Z,3.77
2018-09-02T07:16:08.088Z,3.73
2018-09-02T07:20:11.791Z,4.17
2018-09-02T07:24:15.450Z,4.53
2018-09-02T07:28:19.148Z,3.90
2018-09-02T07:32:22.832Z,4.30
2018-09-02T07:36:26.462Z,3.17
2018-09-02T07:40:30.148Z,3.13
2018-09-02T07:44:33.872Z,3.03
2018-09-02T07:48:37.521Z,2.60
2018-09-02T07:52:41.200Z,2.27
2018-09-02T07:56:44.815Z,2.40
2018-09-02T08:00:48.471Z,2.37
2018-09-02T08:04:52.115Z,2.43
2018-09-02T08:08:55.763Z,1.90
2018-09-02T08:12:59.511Z,2.00
2018-09-02T08:17:03.068Z,2.57
2018-09-02T08:21:06.727Z,2.27
2018-09-02T08:25:10.383Z,1.63
2018-09-02T08:29:14.092Z,1.93
2018-09-02T08:33:17.831Z,1.90
2018-09-02T08:37:21.459Z,1.80
2018-09-02T08:41:25.209Z,1.80
2018-09-02T08:45:28.868Z,2.10
2018-09-02T08:49:32.533Z,1.90
2018-09-02T08:53:36.197Z,1.77
2018-09-02T08:57:39.841Z,1.87
2018-09-02T09:01:43.561Z,2.80
2018-09-02T09:05:47.215Z,2.43
2018-09-02T09:09:50.869Z,1.87
2018-09-02T09:13:55.019Z,2.30
2018-09-02T09:17:58.680Z,2.30
2018-09-02T09:22:02.378Z,2.03
2018-09-02T09:26:06.099Z,2.13
2018-09-02T09:30:10.847Z,2.10
2018-09-02T09:34:14.506Z,2.00
2018-09-02T09:38:18.145Z,2.00
2018-09-02T09:42:21.812Z,1.67
2018-09-02T09:46:25.523Z,1.90
2018-09-02T09:50:29.196Z,1.80
2018-09-02T09:54:32.943Z,1.30
2018-09-02T09:58:36.608Z,1.80
2018-09-02T10:02:40.814Z,1.90
2018-09-02T10:06:44.624Z,1.40
2018-09-02T10:10:48.318Z,1.17
2018-09-02T10:14:51.992Z,1.70
2018-09-02T10:18:55.631Z,1.50
2018-09-02T10:22:59.360Z,1.40
2018-09-02T10:27:03.060Z,1.43
2018-09-02T10:31:06.904Z,1.70
2018-09-02T10:35:10.559Z,1.30
2018-09-02T10:39:14.212Z,1.47
2018-09-02T10:43:17.880Z,1.80
2018-09-02T10:47:21.568Z,1.40
2018-09-02T10:51:25.369Z,1.90
2018-09-02T10:55:29.063Z,1.40
2018-09-02T10:59:32.753Z,1.57
2018-09-02T11:03:36.417Z,1.47
2018-09-02T11:07:40.129Z,1.37
2018-09-02T11:11:43.817Z,1.97
2018-09-02T11:15:47.545Z,1.57
2018-09-02T11:19:51.255Z,1.47
2018-09-02T11:23:54.984Z,1.60
2018-09-02T11:27:58.732Z,1.70
2018-09-02T11:32:02.429Z,1.50
2018-09-02T11:36:06.140Z,1.33
2018-09-02T11:40:09.858Z,1.53
2018-09-02T11:44:13.540Z,1.93
2018-09-02T11:48:17.250Z,1.40
2018-09-02T11:52:20.897Z,1.50
2018-09-02T11:56:24.568Z,1.67
2018-09-02T12:00:28.278Z,1.40
2018-09-02T12:04:32.006Z,1.40
2018-09-02T12:08:35.821Z,1.60
2018-09-02T12:12:39.467Z,1.70
2018-09-02T12:16:43.183Z,1.60
2018-09-02T12:20:46.857Z,1.80
2018-09-02T12:24:50.486Z,1.43
2018-09-02T12:28:54.183Z,1.30
2018-09-02T12:32:57.908Z,1.40
2018-09-02T12:37:01.577Z,1.30
2018-09-02T12:41:05.424Z,1.60
2018-09-02T12:45:09.089Z,1.70
2018-09-02T12:49:12.780Z,1.47
2018-09-02T12:53:16.411Z,1.40
2018-09-02T12:57:20.084Z,1.60
2018-09-02T13:01:23.828Z,1.93
2018-09-02T13:05:27.483Z,1.30
2018-09-02T13:09:31.165Z,1.60
2018-09-02T13:13:34.935Z,1.73
2018-09-02T13:17:38.604Z,1.57
2018-09-02T13:21:42.354Z,1.67
2018-09-02T13:25:45.969Z,1.67
2018-09-02T13:29:49.668Z,1.90
2018-09-02T13:33:53.524Z,1.83
2018-09-02T13:37:57.059Z,1.77
2018-09-02T13:42:00.697Z,1.77
2018-09-02T13:46:04.363Z,1.30
2018-09-02T13:50:08.092Z,1.70
2018-09-02T13:54:11.772Z,1.63
2018-09-02T13:58:15.458Z,1.60
2018-09-02T14:02:19.195Z,1.80
2018-09-02T14:06:22.873Z,1.63
2018-09-02T14:10:26.539Z,1.77
2018-09-02T14:14:30.236Z,1.70
2018-09-02T14:18:33.872Z,1.43
2018-09-02T14:22:37.596Z,1.90
2018-09-02T14:26:41.373Z,1.57
2018-09-02T14:30:45.048Z,1.80
2018-09-02T14:34:48.737Z,1.33
2018-09-02T14:38:52.504Z,2.00
2018-09-02T14:42:56.184Z,1.57
2018-09-02T14:46:59.832Z,1.63
2018-09-02T14:51:03.575Z,1.60
2018-09-02T14:55:07.387Z,1.70
2018-09-02T14:59:11.008Z,1.40
2018-09-02T15:03:15.537Z,1.60
2018-09-02T15:07:19.196Z,1.87
2018-09-02T15:11:22.980Z,1.90
2018-09-02T15:15:26.644Z,1.73
2018-09-02T15:19:30.327Z,1.53
2018-09-02T15:23:34.063Z,1.73
2018-09-02T15:27:37.750Z,1.80
2018-09-02T15:31:41.490Z,1.53
2018-09-02T15:35:45.145Z,1.83
2018-09-02T15:39:48.801Z,1.47
2018-09-02T15:43:52.501Z,1.63
2018-09-02T15:47:56.164Z,1.90
2018-09-02T15:51:59.823Z,1.80
2018-09-02T15:56:03.538Z,1.80
2018-09-02T16:00:08.307Z,1.70
2018-09-02T16:04:11.964Z,1.60
2018-09-02T16:08:15.635Z,1.57
2018-09-02T16:12:19.326Z,1.60
2018-09-02T16:16:22.967Z,1.77
2018-09-02T16:20:26.652Z,1.53
2018-09-02T16:24:30.352Z,1.67
2018-09-02T16:28:34.247Z,1.50
2018-09-02T16:32:37.972Z,1.50
2018-09-02T16:36:41.627Z,1.70
2018-09-02T16:40:45.296Z,1.60
2018-09-02T16:44:49.046Z,1.60
2018-09-02T16:48:52.784Z,1.33
2018-09-02T16:52:56.502Z,1.50
2018-09-02T16:57:00.102Z,1.50
2018-09-02T17:01:03.767Z,2.07
2018-09-02T17:05:11.700Z,1.90
2018-09-02T17:09:15.357Z,2.53
2018-09-02T17:13:19.040Z,2.03
2018-09-02T17:17:22.708Z,1.90
2018-09-02T17:21:26.369Z,1.90
2018-09-02T17:25:30.055Z,1.80
2018-09-02T17:29:33.793Z,2.00
2018-09-02T17:33:37.417Z,2.20
2018-09-02T17:37:41.075Z,1.90
2018-09-02T17:41:44.738Z,1.53
2018-09-02T17:45:48.467Z,2.00
2018-09-02T17:49:52.094Z,2.10
2018-09-02T17:53:55.784Z,2.10
2018-09-02T17:57:59.606Z,1.77
2018-09-02T18:02:03.337Z,2.00
2018-09-02T18:06:07.016Z,1.93
2018-09-02T18:10:10.674Z,2.17
2018-09-02T18:14:14.302Z,2.00
2018-09-02T18:18:17.961Z,2.00
2018-09-02T18:22:21.633Z,2.30
2018-09-02T18:26:25.344Z,1.80
2018-09-02T18:30:29.020Z,1.93
2018-09-02T18:34:32.676Z,1.63
2018-09-02T18:38:36.340Z,2.20
2018-09-02T18:42:39.995Z,1.50
2018-09-02T18:46:43.734Z,1.73
2018-09-02T18:50:47.432Z,1.83
2018-09-02T18:54:51.153Z,2.67
2018-09-02T18:58:55.006Z,1.77
2018-09-02T19:02:58.723Z,2.23
2018-09-02T19:07:02.379Z,2.00
2018-09-02T19:11:06.119Z,2.07
2018-09-02T19:15:09.817Z,1.70
2018-09-02T19:19:13.479Z,1.77
2018-09-02T19:23:17.158Z,1.90
2018-09-02T19:27:20.933Z,1.40
2018-09-02T19:31:24.602Z,1.97
2018-09-02T19:35:28.269Z,2.63
2018-09-02T19:39:31.912Z,1.90
2018-09-02T19:43:35.609Z,1.87
2018-09-02T19:47:56.600Z,2.23
2018-09-02T19:52:00.297Z,1.70
2018-09-02T19:56:03.972Z,2.17
2018-09-02T20:00:09.169Z,2.10
2018-09-02T20:04:12.832Z,1.67
2018-09-02T20:08:16.479Z,2.37
